createdAt,value
2019-02-04T00:01:17.261Z,5.33
2019-02-04T00:03:43.737Z,4.30
2019-02-04T00:06:10.590Z,4.43
2019-02-04T00:08:37.073Z,5.27
2019-02-04T00:11:04.646Z,6.07
2019-02-04T00:13:31.141Z,5.23
2019-02-04T00:15:57.510Z,4.97
2019-02-04T00:18:24.080Z,5.90
2019-02-04T00:20:50.553Z,5.60
2019-02-04T00:23:17.335Z,5.07
2019-02-04T00:25:43.798Z,4.67
2019-02-04T00:28:10.276Z,5.40
2019-02-04T00:30:36.723Z,5.60
2019-02-04T00:33:03.410Z,5.53
2019-02-04T00:35:29.871Z,4.87
2019-02-04T00:37:56.361Z,5.17
2019-02-04T00:40:23.666Z,4.73
2019-02-04T00:42:50.157Z,5.23
2019-02-04T00:45:16.613Z,5.30
2019-02-04T00:47:43.104Z,5.43
2019-02-04T00:50:14.392Z,4.83
2019-02-04T00:52:41.067Z,4.77
2019-02-04T00:55:08.533Z,4.43
2019-02-04T00:57:35.318Z,4.70
2019-02-04T01:00:03.884Z,4.90
2019-02-04T01:02:30.342Z,4.80
2019-02-04T01:04:56.833Z,5.10
2019-02-04T01:07:23.289Z,4.77
2019-02-04T01:09:49.877Z,4.23
2019-02-04T01:12:16.427Z,4.53
2019-02-04T01:14:42.812Z,4.83
2019-02-04T01:17:09.566Z,4.40
2019-02-04T01:19:36.043Z,4.00
2019-02-04T01:22:02.600Z,4.63
2019-02-04T01:24:29.195Z,4.67
2019-02-04T01:26:55.545Z,4.80
2019-02-04T01:29:22.025Z,4.70
2019-02-04T01:31:48.607Z,4.60
2019-02-04T01:34:15.462Z,4.37
2019-02-04T01:36:42.041Z,4.47
2019-02-04T01:39:08.611Z,4.90
2019-02-04T01:41:35.209Z,5.17
2019-02-04T01:44:01.666Z,5.13
2019-02-04T01:46:28.048Z,4.20
2019-02-04T01:48:54.413Z,4.80
2019-02-04T01:51:20.896Z,4.70
2019-02-04T01:53:47.642Z,4.70
2019-02-04T01:56:14.020Z,4.90
2019-02-04T01:58:40.476Z,4.80
2019-02-04T02:01:06.940Z,4.57
2019-02-04T02:03:33.495Z,5.03
2019-02-04T02:06:00.083Z,4.43
2019-02-04T02:08:26.640Z,5.23
2019-02-04T02:10:53.526Z,4.70
2019-02-04T02:13:19.980Z,4.50
2019-02-04T02:15:46.368Z,5.67
2019-02-04T02:18:12.840Z,4.90
2019-02-04T02:20:39.435Z,5.30
2019-02-04T02:23:05.995Z,5.33
2019-02-04T02:25:32.868Z,4.93
2019-02-04T02:27:59.215Z,5.37
2019-02-04T02:30:27.083Z,5.03
2019-02-04T02:32:53.446Z,5.17
2019-02-04T02:35:19.798Z,4.87
2019-02-04T02:37:46.287Z,4.90
2019-02-04T02:40:14.571Z,5.23
2019-02-04T02:42:41.059Z,6.00
2019-02-04T02:45:07.511Z,5.00
2019-02-04T02:47:38.355Z,5.37
2019-02-04T02:50:04.523Z,5.33
2019-02-04T02:52:30.999Z,5.67
2019-02-04T02:54:57.544Z,5.10
2019-02-04T02:57:24.044Z,5.77
2019-02-04T02:59:50.517Z,5.93
2019-02-04T03:02:17.018Z,6.50
2019-02-04T03:04:43.882Z,6.03
2019-02-04T03:07:10.339Z,6.87
2019-02-04T03:09:36.688Z,6.00
2019-02-04T03:12:03.271Z,6.60
2019-02-04T03:14:29.725Z,6.50
2019-02-04T03:16:56.209Z,6.17
2019-02-04T03:19:22.780Z,6.43
2019-02-04T03:21:49.379Z,6.47
2019-02-04T03:24:16.348Z,6.23
2019-02-04T03:26:42.803Z,6.17
2019-02-04T03:29:09.268Z,6.40
2019-02-04T03:31:39.102Z,5.17
2019-02-04T03:34:04.011Z,5.77
2019-02-04T03:36:30.485Z,6.20
2019-02-04T03:38:56.981Z,5.17
2019-02-04T03:41:24.012Z,5.53
2019-02-04T03:43:50.597Z,6.30
2019-02-04T03:46:17.048Z,6.37
2019-02-04T03:48:43.522Z,6.17
2019-02-04T03:51:09.988Z,6.50
2019-02-04T03:53:36.571Z,6.80
2019-02-04T03:56:03.143Z,7.60
2019-02-04T03:58:30.024Z,6.63
2019-02-04T04:00:56.579Z,6.70
2019-02-04T04:03:23.152Z,7.00
2019-02-04T04:05:49.622Z,9.83
2019-02-04T04:08:16.063Z,10.47
2019-02-04T04:10:42.692Z,8.60
2019-02-04T04:13:09.237Z,7.73
2019-02-04T04:15:35.816Z,7.30
2019-02-04T04:18:02.276Z,6.77
2019-02-04T04:20:28.697Z,7.30
2019-02-04T04:22:55.226Z,6.97
2019-02-04T04:25:21.704Z,7.10
2019-02-04T04:27:48.151Z,7.10
2019-02-04T04:30:16.539Z,7.33
2019-02-04T04:32:43.103Z,6.70
2019-02-04T04:35:10.200Z,8.00
2019-02-04T04:37:36.587Z,8.60
2019-02-04T04:40:04.219Z,9.80
2019-02-04T04:42:30.681Z,14.20
2019-02-04T04:44:57.178Z,18.43
2019-02-04T04:47:23.543Z,13.33
2019-02-04T04:49:50.022Z,12.83
2019-02-04T04:52:16.480Z,12.90
2019-02-04T04:54:42.981Z,12.57
2019-02-04T04:57:09.427Z,13.50
2019-02-04T04:59:35.916Z,11.40
2019-02-04T05:02:02.363Z,10.40
2019-02-04T05:04:28.744Z,11.20
2019-02-04T05:06:55.230Z,12.43
2019-02-04T05:09:21.729Z,10.90
2019-02-04T05:11:48.562Z,9.13
2019-02-04T05:14:14.923Z,8.77
2019-02-04T05:16:41.508Z,8.87
2019-02-04T05:19:07.967Z,7.37
2019-02-04T05:21:34.539Z,6.83
2019-02-04T05:24:00.982Z,7.37
2019-02-04T05:26:27.463Z,7.77
2019-02-04T05:28:54.024Z,8.57
2019-02-04T05:31:20.516Z,8.13
2019-02-04T05:33:46.964Z,8.23
2019-02-04T05:36:13.331Z,9.07
2019-02-04T05:38:39.892Z,8.40
2019-02-04T05:41:06.401Z,8.73
2019-02-04T05:43:32.767Z,8.77
2019-02-04T05:45:59.331Z,9.03
2019-02-04T05:48:25.900Z,7.93
2019-02-04T05:50:52.487Z,8.50
2019-02-04T05:53:18.939Z,7.37
2019-02-04T05:55:45.425Z,8.73
2019-02-04T05:58:11.890Z,7.47
2019-02-04T06:00:40.141Z,8.90
2019-02-04T06:03:06.535Z,8.27
2019-02-04T06:05:32.983Z,9.63
2019-02-04T06:07:59.757Z,10.10
2019-02-04T06:10:26.204Z,9.67
2019-02-04T06:12:52.698Z,9.90
2019-02-04T06:15:19.145Z,7.27
2019-02-04T06:17:45.643Z,7.97
2019-02-04T06:20:16.563Z,7.90
2019-02-04T06:22:43.031Z,11.43
2019-02-04T06:25:09.784Z,19.63
2019-02-04T06:27:36.347Z,15.73
2019-02-04T06:30:04.307Z,11.60
2019-02-04T06:32:30.788Z,11.07
2019-02-04T06:34:57.239Z,13.43
2019-02-04T06:37:23.640Z,17.40
2019-02-04T06:39:50.144Z,15.00
2019-02-04T06:42:17.046Z,13.93
2019-02-04T06:44:43.511Z,12.03
2019-02-04T06:47:10.021Z,13.13
2019-02-04T06:49:36.497Z,10.97
2019-02-04T06:52:03.178Z,10.87
2019-02-04T06:54:29.651Z,10.47
2019-02-04T06:56:56.219Z,10.60
2019-02-04T06:59:22.814Z,9.93
2019-02-04T07:01:49.588Z,10.93
2019-02-04T07:04:15.969Z,8.73
2019-02-04T07:06:42.543Z,7.30
2019-02-04T07:09:09.129Z,7.97
2019-02-04T07:11:35.583Z,8.87
2019-02-04T07:14:03.236Z,9.30
2019-02-04T07:16:29.694Z,9.20
2019-02-04T07:18:56.217Z,8.67
2019-02-04T07:21:22.955Z,7.63
2019-02-04T07:23:49.562Z,7.00
2019-02-04T07:26:16.019Z,8.17
2019-02-04T07:28:42.383Z,8.43
2019-02-04T07:31:08.943Z,8.80
2019-02-04T07:33:35.442Z,9.50
2019-02-04T07:36:03.460Z,11.43
2019-02-04T07:38:30.172Z,9.27
2019-02-04T07:40:56.928Z,8.67
2019-02-04T07:43:23.524Z,9.23
2019-02-04T07:45:49.907Z,9.60
2019-02-04T07:48:16.272Z,10.40
2019-02-04T07:50:42.753Z,10.30
2019-02-04T07:53:09.307Z,8.53
2019-02-04T07:55:35.895Z,9.27
2019-02-04T07:58:02.369Z,8.70
2019-02-04T08:00:32.003Z,10.27
2019-02-04T08:02:58.468Z,10.27
2019-02-04T08:05:24.931Z,10.00
2019-02-04T08:07:51.383Z,10.60
2019-02-04T08:10:18.003Z,10.27
2019-02-04T08:12:44.673Z,10.63
2019-02-04T08:15:13.066Z,9.13
2019-02-04T08:17:39.636Z,10.87
2019-02-04T08:20:06.639Z,11.27
2019-02-04T08:22:33.219Z,10.13
2019-02-04T08:24:59.685Z,8.87
2019-02-04T08:27:26.257Z,10.00
2019-02-04T08:29:52.710Z,10.67
2019-02-04T08:32:19.181Z,11.00
2019-02-04T08:34:46.035Z,10.63
2019-02-04T08:37:12.491Z,10.57
2019-02-04T08:39:39.029Z,9.97
2019-02-04T08:42:05.663Z,9.80
2019-02-04T08:44:32.152Z,11.03
2019-02-04T08:46:58.706Z,10.83
2019-02-04T08:49:25.175Z,10.77
2019-02-04T08:51:51.636Z,12.93
2019-02-04T08:54:18.115Z,12.73
2019-02-04T08:56:44.978Z,12.00
2019-02-04T08:59:11.460Z,11.73
2019-02-04T09:01:37.916Z,11.30
2019-02-04T09:04:04.406Z,10.77
2019-02-04T09:06:30.956Z,11.77
2019-02-04T09:08:57.447Z,11.27
2019-02-04T09:11:23.912Z,10.33
2019-02-04T09:13:50.506Z,10.20
2019-02-04T09:16:17.295Z,10.37
2019-02-04T09:18:45.089Z,9.13
2019-02-04T09:21:11.847Z,9.60
2019-02-04T09:23:38.242Z,9.20
2019-02-04T09:26:04.720Z,9.50
2019-02-04T09:28:31.184Z,9.70
2019-02-04T09:30:57.632Z,9.47
2019-02-04T09:33:24.117Z,9.10
2019-02-04T09:35:50.992Z,8.77
2019-02-04T09:38:17.454Z,8.13
2019-02-04T09:40:44.447Z,7.80
2019-02-04T09:43:11.561Z,7.93
2019-02-04T09:45:38.545Z,7.97
2019-02-04T09:48:06.907Z,8.03
2019-02-04T09:50:34.991Z,8.13
2019-02-04T09:53:01.449Z,8.73
2019-02-04T09:55:29.523Z,8.90
2019-02-04T09:57:56.007Z,8.20
2019-02-04T10:00:24.192Z,9.53
2019-02-04T10:02:50.648Z,8.53
2019-02-04T10:05:17.621Z,8.33
2019-02-04T10:07:44.079Z,8.27
2019-02-04T10:10:12.357Z,7.40
2019-02-04T10:12:39.322Z,8.00
2019-02-04T10:15:07.727Z,8.27
2019-02-04T10:17:34.325Z,8.20
2019-02-04T10:20:00.974Z,8.23
2019-02-04T10:22:27.427Z,8.23
2019-02-04T10:24:53.928Z,7.57
2019-02-04T10:27:20.397Z,7.30
2019-02-04T10:29:47.295Z,7.93
2019-02-04T10:32:13.797Z,7.40
2019-02-04T10:34:40.365Z,8.07
2019-02-04T10:37:06.931Z,7.90
2019-02-04T10:39:33.355Z,8.20
2019-02-04T10:42:00.055Z,8.90
2019-02-04T10:44:26.580Z,8.50
2019-02-04T10:46:53.081Z,8.70
2019-02-04T10:49:19.626Z,8.17
2019-02-04T10:51:46.216Z,8.53
2019-02-04T10:54:12.696Z,8.87
2019-02-04T10:56:39.282Z,8.57
2019-02-04T10:59:05.841Z,8.43
2019-02-04T11:01:32.345Z,7.80
2019-02-04T11:03:58.859Z,8.20
2019-02-04T11:06:25.480Z,7.95
2019-02-04T11:08:51.934Z,6.12
2019-02-04T11:11:18.464Z,5.17
2019-02-04T11:13:45.200Z,5.03
2019-02-04T11:16:11.742Z,4.72
2019-02-04T11:18:38.334Z,6.45
2019-02-04T11:21:04.897Z,5.60
2019-02-04T11:23:31.381Z,5.10
2019-02-04T11:25:58.239Z,5.15
2019-02-04T11:28:24.800Z,5.25
2019-02-04T11:30:53.363Z,5.40
2019-02-04T11:33:20.265Z,5.00
2019-02-04T11:35:46.825Z,5.22
2019-02-04T11:38:13.460Z,5.00
2019-02-04T11:40:40.022Z,4.70
2019-02-04T11:43:07.203Z,4.35
2019-02-04T11:45:33.871Z,4.80
2019-02-04T11:48:00.850Z,4.80
2019-02-04T11:50:27.522Z,3.90
2019-02-04T11:52:54.059Z,3.92
2019-02-04T11:55:20.615Z,4.17
2019-02-04T11:57:47.213Z,3.65
2019-02-04T12:00:15.562Z,4.00
2019-02-04T12:02:42.561Z,3.40
2019-02-04T12:05:10.937Z,3.67
2019-02-04T12:07:37.474Z,4.25
2019-02-04T12:10:05.849Z,4.72
2019-02-04T12:12:32.457Z,3.83
2019-02-04T12:14:58.913Z,4.03
2019-02-04T12:17:25.446Z,3.60
2019-02-04T12:19:52.292Z,3.17
2019-02-04T12:22:18.778Z,3.92
2019-02-04T12:24:45.154Z,3.08
2019-02-04T12:27:11.677Z,3.02
2019-02-04T12:29:38.141Z,2.70
2019-02-04T12:32:04.611Z,3.20
2019-02-04T12:34:31.075Z,3.10
2019-02-04T12:36:57.583Z,3.10
2019-02-04T12:39:24.471Z,3.27
2019-02-04T12:41:51.025Z,3.22
2019-02-04T12:44:17.491Z,3.10
2019-02-04T12:46:43.951Z,3.15
2019-02-04T12:49:10.644Z,3.10
2019-02-04T12:51:36.994Z,3.35
2019-02-04T12:54:03.456Z,4.15
2019-02-04T12:56:29.904Z,3.20
2019-02-04T12:58:56.478Z,3.37
2019-02-04T13:01:23.065Z,3.60
2019-02-04T13:03:49.536Z,3.02
2019-02-04T13:06:16.109Z,3.42
2019-02-04T13:08:42.686Z,3.55
2019-02-04T13:11:09.076Z,3.05
2019-02-04T13:13:35.873Z,2.90
2019-02-04T13:16:02.923Z,2.67
2019-02-04T13:18:29.437Z,2.40
2019-02-04T13:20:55.801Z,2.30
2019-02-04T13:23:22.305Z,2.67
2019-02-04T13:25:48.651Z,2.35
2019-02-04T13:28:15.211Z,1.87
2019-02-04T13:30:41.736Z,1.90
2019-02-04T13:33:08.319Z,2.27
2019-02-04T13:35:35.084Z,2.20
2019-02-04T13:38:01.649Z,2.30
2019-02-04T13:40:28.541Z,2.40
2019-02-04T13:42:55.115Z,2.75
2019-02-04T13:45:21.997Z,3.00
2019-02-04T13:47:48.961Z,2.10
2019-02-04T13:50:16.546Z,2.33
2019-02-04T13:52:43.490Z,2.52
2019-02-04T13:55:11.881Z,2.30
2019-02-04T13:57:38.438Z,2.40
2019-02-04T14:00:06.821Z,2.37
2019-02-04T14:02:33.294Z,2.00
2019-02-04T14:04:59.687Z,2.02
2019-02-04T14:07:26.161Z,2.35
2019-02-04T14:09:53.143Z,2.50
2019-02-04T14:12:19.715Z,2.10
2019-02-04T14:14:46.314Z,2.20
2019-02-04T14:17:12.901Z,2.33
2019-02-04T14:19:39.474Z,2.47
2019-02-04T14:22:09.273Z,1.92
2019-02-04T14:24:34.421Z,2.40
2019-02-04T14:27:01.292Z,2.17
2019-02-04T14:29:27.778Z,2.30
2019-02-04T14:31:54.389Z,2.30
2019-02-04T14:34:20.851Z,2.22
2019-02-04T14:36:47.480Z,2.42
2019-02-04T14:39:13.964Z,2.40
2019-02-04T14:41:40.457Z,2.50
2019-02-04T14:44:07.136Z,2.70
2019-02-04T14:46:35.651Z,2.62
2019-02-04T14:49:02.020Z,3.20
2019-02-04T14:51:30.400Z,2.87
2019-02-04T14:53:57.867Z,2.70
2019-02-04T14:56:26.218Z,2.55
2019-02-04T14:58:54.733Z,2.58
2019-02-04T15:01:22.629Z,2.67
2019-02-04T15:03:51.036Z,2.60
2019-02-04T15:06:19.403Z,2.70
2019-02-04T15:08:47.692Z,2.70
2019-02-04T15:11:16.083Z,2.50
2019-02-04T15:13:44.355Z,2.63
2019-02-04T15:16:13.049Z,3.70
2019-02-04T15:18:41.451Z,5.57
2019-02-04T15:21:09.833Z,6.60
2019-02-04T15:23:38.183Z,5.43
2019-02-04T15:26:06.538Z,6.23
2019-02-04T15:28:34.915Z,4.60
2019-02-04T15:31:01.584Z,4.67
2019-02-04T15:33:28.173Z,5.30
2019-02-04T15:35:56.540Z,5.83
2019-02-04T15:38:24.923Z,5.00
2019-02-04T15:40:51.493Z,5.00
2019-02-04T15:43:25.793Z,5.13
2019-02-04T15:45:52.460Z,5.53
2019-02-04T15:48:19.943Z,5.53
2019-02-04T15:50:48.313Z,5.53
2019-02-04T15:53:14.805Z,6.23
2019-02-04T15:55:41.277Z,6.03
2019-02-04T15:58:07.667Z,6.70
2019-02-04T16:00:34.113Z,6.77
2019-02-04T16:03:01.023Z,5.43
2019-02-04T16:05:27.408Z,6.73
2019-02-04T16:07:53.776Z,7.37
2019-02-04T16:10:20.228Z,6.80
2019-02-04T16:12:47.886Z,7.80
2019-02-04T16:15:14.887Z,8.20
2019-02-04T16:17:41.408Z,7.27
2019-02-04T16:20:09.688Z,7.27
2019-02-04T16:22:36.439Z,5.77
2019-02-04T16:25:04.329Z,6.70
2019-02-04T16:27:30.790Z,7.10
2019-02-04T16:29:57.423Z,7.10
2019-02-04T16:32:23.871Z,7.27
2019-02-04T16:34:50.343Z,7.77
2019-02-04T16:37:16.897Z,9.60
2019-02-04T16:39:43.888Z,6.67
2019-02-04T16:42:10.340Z,4.97
2019-02-04T16:44:37.035Z,5.63
2019-02-04T16:47:03.711Z,4.63
2019-02-04T16:49:30.427Z,4.80
2019-02-04T16:51:56.833Z,4.93
2019-02-04T16:54:23.458Z,5.43
2019-02-04T16:56:49.807Z,5.20
2019-02-04T16:59:16.705Z,5.60
2019-02-04T17:01:43.268Z,5.47
2019-02-04T17:04:09.870Z,5.50
2019-02-04T17:06:36.564Z,5.70
2019-02-04T17:09:04.665Z,6.00
2019-02-04T17:11:31.281Z,5.43
2019-02-04T17:13:57.902Z,5.10
2019-02-04T17:16:24.575Z,6.23
2019-02-04T17:18:52.585Z,5.30
2019-02-04T17:21:19.319Z,6.40
2019-02-04T17:23:45.882Z,6.27
2019-02-04T17:26:12.263Z,6.87
2019-02-04T17:28:38.904Z,6.17
2019-02-04T17:31:05.356Z,6.93
2019-02-04T17:33:31.911Z,6.10
2019-02-04T17:35:58.492Z,6.57
2019-02-04T17:38:25.887Z,5.43
2019-02-04T17:40:52.418Z,5.33
2019-02-04T17:43:18.865Z,6.10
2019-02-04T17:45:45.346Z,4.83
2019-02-04T17:48:11.891Z,5.07
2019-02-04T17:50:38.303Z,4.70
2019-02-04T17:53:04.850Z,4.40
2019-02-04T17:55:31.773Z,4.30
2019-02-04T17:57:58.408Z,4.87
2019-02-04T18:00:29.913Z,4.03
2019-02-04T18:02:56.449Z,4.13
2019-02-04T18:05:23.044Z,4.60
2019-02-04T18:07:49.674Z,4.07
2019-02-04T18:10:16.942Z,4.13
2019-02-04T18:12:43.783Z,5.03
2019-02-04T18:15:12.406Z,4.57
2019-02-04T18:17:39.013Z,5.40
2019-02-04T18:20:06.692Z,4.00
2019-02-04T18:22:33.268Z,3.90
2019-02-04T18:24:59.847Z,4.60
2019-02-04T18:27:26.491Z,4.23
2019-02-04T18:29:53.272Z,3.97
2019-02-04T18:32:19.767Z,4.50
2019-02-04T18:34:46.317Z,5.10
2019-02-04T18:37:13.016Z,4.67
2019-02-04T18:39:39.565Z,4.57
2019-02-04T18:42:06.221Z,4.57
2019-02-04T18:44:32.916Z,4.93
2019-02-04T18:46:59.538Z,5.07
2019-02-04T18:49:26.208Z,4.50
2019-02-04T18:51:52.739Z,5.37
2019-02-04T18:54:19.848Z,5.30
2019-02-04T18:56:46.355Z,5.27
2019-02-04T18:59:13.093Z,5.13
2019-02-04T19:01:40.050Z,6.77
2019-02-04T19:04:08.337Z,6.60
2019-02-04T19:06:34.901Z,6.20
2019-02-04T19:09:01.371Z,6.00
2019-02-04T19:11:27.820Z,5.33
2019-02-04T19:13:54.450Z,5.43
2019-02-04T19:16:21.129Z,5.73
2019-02-04T19:18:47.656Z,6.33
2019-02-04T19:21:14.250Z,5.83
2019-02-04T19:23:41.148Z,6.20
2019-02-04T19:26:08.055Z,5.87
2019-02-04T19:28:34.595Z,6.80
2019-02-04T19:31:03.095Z,6.77
2019-02-04T19:33:29.732Z,7.63
2019-02-04T19:35:56.280Z,6.97
2019-02-04T19:38:22.954Z,7.17
2019-02-04T19:40:49.627Z,6.83
2019-02-04T19:43:16.441Z,6.73
2019-02-04T19:45:43.044Z,6.80
2019-02-04T19:48:11.458Z,8.80
2019-02-04T19:50:37.913Z,10.80
2019-02-04T19:53:04.756Z,7.57
2019-02-04T19:55:31.140Z,7.13
2019-02-04T19:57:57.572Z,7.90
2019-02-04T20:00:24.453Z,7.43
2019-02-04T20:02:51.594Z,7.17
2019-02-04T20:05:19.197Z,8.30
2019-02-04T20:07:46.045Z,9.67
2019-02-04T20:10:14.061Z,9.87
2019-02-04T20:12:40.719Z,10.77
2019-02-04T20:15:15.067Z,9.87
2019-02-04T20:17:42.077Z,9.50
2019-02-04T20:20:09.153Z,8.80
2019-02-04T20:22:35.746Z,9.57
2019-02-04T20:25:03.394Z,8.60
2019-02-04T20:27:30.075Z,8.33
2019-02-04T20:29:56.516Z,9.67
2019-02-04T20:32:23.033Z,8.77
2019-02-04T20:34:49.709Z,9.77
2019-02-04T20:37:16.576Z,9.57
2019-02-04T20:39:43.247Z,8.90
2019-02-04T20:42:09.832Z,9.10
2019-02-04T20:44:36.439Z,9.57
2019-02-04T20:47:02.901Z,9.97
2019-02-04T20:49:29.303Z,9.97
2019-02-04T20:51:55.801Z,8.87
2019-02-04T20:54:23.408Z,11.67
2019-02-04T20:56:50.319Z,11.83
2019-02-04T20:59:16.919Z,11.03
2019-02-04T21:01:43.383Z,10.10
2019-02-04T21:04:09.977Z,11.23
2019-02-04T21:06:36.535Z,10.47
2019-02-04T21:09:04.797Z,11.87
2019-02-04T21:11:31.277Z,13.07
2019-02-04T21:13:57.740Z,13.37
2019-02-04T21:16:24.224Z,12.57
2019-02-04T21:18:51.736Z,11.57
2019-02-04T21:21:18.218Z,9.90
2019-02-04T21:23:44.678Z,9.20
2019-02-04T21:26:11.272Z,9.27
2019-02-04T21:28:37.732Z,10.60
2019-02-04T21:31:04.215Z,10.63
2019-02-04T21:33:30.996Z,10.63
2019-02-04T21:35:57.583Z,10.47
2019-02-04T21:38:25.614Z,11.20
2019-02-04T21:40:52.224Z,11.37
2019-02-04T21:43:18.792Z,12.10
2019-02-04T21:45:45.316Z,12.47
2019-02-04T21:48:11.763Z,11.97
2019-02-04T21:50:38.580Z,15.37
2019-02-04T21:53:05.428Z,18.13
2019-02-04T21:55:32.000Z,17.00
2019-02-04T21:57:58.424Z,18.13
2019-02-04T22:00:26.856Z,13.17
2019-02-04T22:02:53.543Z,13.97
2019-02-04T22:05:21.151Z,14.30
2019-02-04T22:07:47.979Z,13.77
2019-02-04T22:10:16.355Z,13.00
2019-02-04T22:12:42.912Z,16.90
2019-02-04T22:15:09.487Z,15.33
2019-02-04T22:17:35.996Z,15.53
2019-02-04T22:20:03.952Z,15.43
2019-02-04T22:22:30.523Z,15.60
2019-02-04T22:24:56.991Z,15.43
2019-02-04T22:27:23.952Z,18.27
2019-02-04T22:29:50.521Z,13.40
2019-02-04T22:32:17.086Z,13.93
2019-02-04T22:34:45.685Z,17.97
2019-02-04T22:37:12.271Z,18.73
2019-02-04T22:39:38.653Z,21.63
2019-02-04T22:42:05.135Z,20.10
2019-02-04T22:44:31.616Z,20.20
2019-02-04T22:46:58.067Z,18.87
2019-02-04T22:49:24.458Z,18.57
2019-02-04T22:51:51.219Z,15.23
2019-02-04T22:54:17.807Z,16.27
2019-02-04T22:56:44.256Z,15.30
2019-02-04T22:59:10.741Z,15.43
2019-02-04T23:01:39.091Z,16.50
2019-02-04T23:04:05.809Z,16.10
2019-02-04T23:06:32.241Z,16.07
2019-02-04T23:08:59.224Z,16.27
2019-02-04T23:11:25.791Z,16.70
2019-02-04T23:13:52.461Z,16.07
2019-02-04T23:16:18.912Z,15.67
2019-02-04T23:18:45.326Z,16.27
2019-02-04T23:21:11.813Z,17.43
2019-02-04T23:23:38.293Z,17.30
2019-02-04T23:26:04.749Z,16.27
2019-02-04T23:28:31.122Z,16.17
2019-02-04T23:30:57.705Z,17.10
2019-02-04T23:33:33.859Z,16.53
2019-02-04T23:35:52.693Z,16.47
2019-02-04T23:38:19.514Z,16.33
2019-02-04T23:40:46.020Z,14.57
2019-02-04T23:43:12.525Z,18.07
2019-02-04T23:45:39.310Z,17.63
2019-02-04T23:48:06.060Z,17.10
2019-02-04T23:50:32.527Z,17.93
2019-02-04T23:52:59.089Z,17.43
2019-02-04T23:55:25.646Z,16.67
2019-02-04T23:57:52.033Z,16.60
